^^
Grace C. Lehan Memorial Weather Station Historical Data
Daily Summary for May 21, 2021 Units:  Both    English   Metric
Daily Weekly Monthly Yearly
  High: Low: Average:
Temperature: 37.2 °F /  2.9 °C 19.9 °F /  -6.7 °C 29 °F /  -1.7 °C
Dew Point: 25.2 °F /  -3.8 °C 11.4 °F /  -11.4 °C 19.4 °F /  -7 °C
Humidity: 78% 56.1% 67%
Wind Speed: 3.9mph /  6.3km/h - 0.3mph /  0.5km/h
Wind Gust: 13mph /  20.9km/h - -
Wind- - SW
Pressure: 30.00 in /  1015.8 hPa 29.57 in /  1001.2 hPa -
Precipitation: 0.00 in /  0 mm    
 
 
Tabular Data for May 21, 2021
Time Temperature Dew Point Pressure Wind Wind Speed Wind Gust Humidity Rainfall Rate (Hourly) solar
00:04 23.6 °F /  -4.7 °C 11.4 °F /  -11.4 °C 30.00in /  1015.8hPa WNW 2.5mph /  4km/h 10mph /  16.1km/h 59.1% 0.00in /  0mm 0 W/m2
00:09 23.6 °F /  -4.7 °C 11.8 °F /  -11.2 °C 30.00in /  1015.8hPa WNW 2mph /  3.2km/h 7mph /  11.3km/h 60% 0.00in /  0mm 0 W/m2
00:14 23.5 °F /  -4.7 °C 11.7 °F /  -11.3 °C 30.00in /  1015.8hPa WNW 0.2mph /  0.3km/h 7mph /  11.3km/h 60% 0.00in /  0mm 0 W/m2
00:19 23.5 °F /  -4.7 °C 11.7 °F /  -11.3 °C 30.00in /  1015.8hPa WNW 2.2mph /  3.5km/h 7mph /  11.3km/h 60% 0.00in /  0mm 0 W/m2
00:24 23.5 °F /  -4.7 °C 11.6 °F /  -11.3 °C 30.00in /  1015.8hPa Calm   7mph /  11.3km/h 60% 0.00in /  0mm 0 W/m2
00:29 23.4 °F /  -4.8 °C 11.9 °F /  -11.2 °C 30.00in /  1015.8hPa West 0.1mph /  0.2km/h 7mph /  11.3km/h 60.9% 0.00in /  0mm 0 W/m2
00:34 23.4 °F /  -4.8 °C 11.9 °F /  -11.2 °C 30.00in /  1015.8hPa West 0.6mph /  1km/h 7mph /  11.3km/h 61% 0.00in /  0mm 0 W/m2
00:39 23.3 °F /  -4.8 °C 11.9 °F /  -11.2 °C 30.00in /  1015.8hPa WNW 0.9mph /  1.4km/h 7mph /  11.3km/h 61% 0.00in /  0mm 0 W/m2
00:44 23.3 °F /  -4.8 °C 11.8 °F /  -11.2 °C 30.00in /  1015.8hPa WSW 2mph /  3.2km/h 7mph /  11.3km/h 60.8% 0.00in /  0mm 0 W/m2
00:49 23.3 °F /  -4.8 °C 11.9 °F /  -11.2 °C 30.00in /  1015.8hPa Calm   7mph /  11.3km/h 61% 0.00in /  0mm 0 W/m2
00:54 23.3 °F /  -4.8 °C 11.9 °F /  -11.2 °C 30.00in /  1015.8hPa Calm   7mph /  11.3km/h 61% 0.00in /  0mm 0 W/m2
00:59 23.3 °F /  -4.8 °C 11.9 °F /  -11.2 °C 30.00in /  1015.8hPa West 0.2mph /  0.3km/h 7mph /  11.3km/h 61% 0.00in /  0mm 0 W/m2
01:04 23.3 °F /  -4.8 °C 12.2 °F /  -11 °C 30.00in /  1015.8hPa West 0.4mph /  0.6km/h 7mph /  11.3km/h 61.8% 0.00in /  0mm 0 W/m2
01:09 23.3 °F /  -4.8 °C 12.2 °F /  -11 °C 30.00in /  1015.8hPa WNW 1mph /  1.6km/h 6mph /  9.7km/h 62% 0.00in /  0mm 0 W/m2
01:14 23.3 °F /  -4.8 °C 12.2 °F /  -11 °C 30.00in /  1015.8hPa NW 0.2mph /  0.3km/h 6mph /  9.7km/h 62% 0.00in /  0mm 0 W/m2
01:19 23.3 °F /  -4.8 °C 12.2 °F /  -11 °C 30.00in /  1015.8hPa NW 0.7mph /  1.1km/h 6mph /  9.7km/h 62% 0.00in /  0mm 0 W/m2
01:24 23.2 °F /  -4.9 °C 12.2 °F /  -11 °C 30.00in /  1015.8hPa NW 0.1mph /  0.2km/h 6mph /  9.7km/h 62% 0.00in /  0mm 0 W/m2
01:29 23.2 °F /  -4.9 °C 12.1 °F /  -11.1 °C 30.00in /  1015.8hPa NW 1.1mph /  1.8km/h 6mph /  9.7km/h 62% 0.00in /  0mm 0 W/m2
01:34 23.2 °F /  -4.9 °C 12.1 °F /  -11.1 °C 30.00in /  1015.8hPa Calm   6mph /  9.7km/h 62% 0.00in /  0mm 0 W/m2
01:39 23.1 °F /  -4.9 °C 12 °F /  -11.1 °C 30.00in /  1015.8hPa Calm     62% 0.00in /  0mm 0 W/m2
01:44 23 °F /  -5 °C 12 °F /  -11.1 °C 29.99in /  1015.5hPa Calm     62% 0.00in /  0mm 0 W/m2
01:49 23 °F /  -5 °C 11.9 °F /  -11.2 °C 29.99in /  1015.5hPa Calm     62% 0.00in /  0mm 0 W/m2
01:54 22.9 °F /  -5.1 °C 12 °F /  -11.1 °C 29.99in /  1015.5hPa Calm     62.3% 0.00in /  0mm 0 W/m2
01:59 22.9 °F /  -5.1 °C 12.2 °F /  -11 °C 29.99in /  1015.5hPa Calm     63% 0.00in /  0mm 0 W/m2
02:04 22.8 °F /  -5.1 °C 12.1 °F /  -11.1 °C 29.98in /  1015.1hPa Calm     63% 0.00in /  0mm 0 W/m2
02:09 22.7 °F /  -5.2 °C 12 °F /  -11.1 °C 29.97in /  1014.8hPa Calm     63% 0.00in /  0mm 0 W/m2
02:14 22.6 °F /  -5.2 °C 12.3 °F /  -10.9 °C 29.97in /  1014.8hPa Calm     64.1% 0.00in /  0mm 0 W/m2
02:17 22.5 °F /  -5.3 °C 12.5 °F /  -10.8 °C 29.96in /  1014.4hPa Calm     65% 0.00in /  0mm 0 W/m2
03:00 22.1 °F /  -5.5 °C 12.8 °F /  -10.7 °C 29.94in /  1013.8hPa Calm     67% 0.00in /  0mm 0 W/m2
03:30 22 °F /  -5.6 °C 14.1 °F /  -9.9 °C 29.94in /  1013.8hPa Calm     71% 0.00in /  0mm 0 W/m2
04:04 21.7 °F /  -5.7 °C 13.8 °F /  -10.1 °C 29.94in /  1013.8hPa Calm     71% 0.00in /  0mm 0 W/m2
04:09 21.7 °F /  -5.7 °C 14 °F /  -10 °C 29.92in /  1013.1hPa Calm     71.8% 0.00in /  0mm 0 W/m2
04:14 21.7 °F /  -5.7 °C 14.1 °F /  -9.9 °C 29.92in /  1013.1hPa Calm     72.1% 0.00in /  0mm 0 W/m2
04:19 21.7 °F /  -5.7 °C 14.4 °F /  -9.8 °C 29.91in /  1012.8hPa Calm     73% 0.00in /  0mm 0 W/m2
04:24 21.6 °F /  -5.8 °C 14.3 °F /  -9.8 °C 29.91in /  1012.8hPa Calm     73% 0.00in /  0mm 0 W/m2
04:29 21.6 °F /  -5.8 °C 14.3 °F /  -9.8 °C 29.91in /  1012.8hPa Calm     73% 0.00in /  0mm 0 W/m2
04:34 21.5 °F /  -5.8 °C 14.2 °F /  -9.9 °C 29.91in /  1012.8hPa Calm     73% 0.00in /  0mm 0 W/m2
04:39 21.6 °F /  -5.8 °C 14.3 °F /  -9.8 °C 29.91in /  1012.8hPa Calm     73% 0.00in /  0mm 0 W/m2
04:44 21.6 °F /  -5.8 °C 14.2 °F /  -9.9 °C 29.91in /  1012.8hPa Calm     72.6% 0.00in /  0mm 0 W/m2
04:49 21.6 °F /  -5.8 °C 14.5 °F /  -9.7 °C 29.90in /  1012.4hPa Calm     73.7% 0.00in /  0mm 0 W/m2
04:54 21.7 °F /  -5.7 °C 15 °F /  -9.4 °C 29.90in /  1012.4hPa Calm     75% 0.00in /  0mm 0 W/m2
04:59 21.6 °F /  -5.8 °C 14.9 °F /  -9.5 °C 29.90in /  1012.4hPa Calm     75% 0.00in /  0mm 0 W/m2
05:04 21.5 °F /  -5.8 °C 14.9 °F /  -9.5 °C 29.89in /  1012.1hPa Calm     75% 0.00in /  0mm 0 W/m2
05:09 21.4 °F /  -5.9 °C 14.5 °F /  -9.7 °C 29.88in /  1011.7hPa Calm     74.3% 0.00in /  0mm 0 W/m2
05:14 21.3 °F /  -5.9 °C 14.2 °F /  -9.9 °C 29.88in /  1011.7hPa Calm     73.7% 0.00in /  0mm 0 W/m2
05:19 21.3 °F /  -5.9 °C 14 °F /  -10 °C 29.88in /  1011.7hPa Calm     73.2% 0.00in /  0mm 0 W/m2
05:24 21.2 °F /  -6 °C 14 °F /  -10 °C 29.88in /  1011.7hPa Calm     73.4% 0.00in /  0mm 0 W/m2
05:29 21.1 °F /  -6.1 °C 14.1 °F /  -9.9 °C 29.89in /  1012.1hPa Calm     74% 0.00in /  0mm 0 W/m2
05:34 21 °F /  -6.1 °C 14 °F /  -10 °C 29.88in /  1011.7hPa Calm     74% 0.00in /  0mm 0 W/m2
05:39 20.8 °F /  -6.2 °C 14 °F /  -10 °C 29.87in /  1011.4hPa Calm     74.5% 0.00in /  0mm 0 W/m2
05:44 20.7 °F /  -6.3 °C 14 °F /  -10 °C 29.87in /  1011.4hPa Calm     75% 0.00in /  0mm 0 W/m2
05:49 20.6 °F /  -6.3 °C 13.9 °F /  -10.1 °C 29.87in /  1011.4hPa Calm     75% 0.00in /  0mm 0 W/m2
05:54 20.5 °F /  -6.4 °C 13.8 °F /  -10.1 °C 29.87in /  1011.4hPa Calm     75% 0.00in /  0mm 0 W/m2
05:59 20.4 °F /  -6.4 °C 13.7 °F /  -10.2 °C 29.87in /  1011.4hPa Calm     75% 0.00in /  0mm 0 W/m2
06:04 20.3 °F /  -6.5 °C 13.6 °F /  -10.2 °C 29.87in /  1011.4hPa Calm     75% 0.00in /  0mm 0 W/m2
06:09 20.2 °F /  -6.6 °C 13.7 °F /  -10.2 °C 29.87in /  1011.4hPa Calm     75.4% 0.00in /  0mm 0 W/m2
06:14 20.1 °F /  -6.6 °C 13.8 °F /  -10.1 °C 29.87in /  1011.4hPa Calm     76% 0.00in /  0mm 0 W/m2
06:19 20.1 °F /  -6.6 °C 13.9 °F /  -10.1 °C 29.87in /  1011.4hPa Calm     76.7% 0.00in /  0mm 0 W/m2
06:24 20 °F /  -6.7 °C 13.9 °F /  -10.1 °C 29.86in /  1011.1hPa Calm     77% 0.00in /  0mm 0 W/m2
06:29 19.9 °F /  -6.7 °C 14 °F /  -10 °C 29.87in /  1011.4hPa Calm     77.6% 0.00in /  0mm 0 W/m2
06:34 19.9 °F /  -6.7 °C 14.2 °F /  -9.9 °C 29.86in /  1011.1hPa Calm     78% 0.00in /  0mm 0 W/m2
06:39 19.9 °F /  -6.7 °C 14.2 °F /  -9.9 °C 29.86in /  1011.1hPa Calm     78% 0.00in /  0mm 0 W/m2
06:44 20 °F /  -6.7 °C 14.3 °F /  -9.8 °C 29.87in /  1011.4hPa Calm     78% 0.00in /  0mm 0 W/m2
06:49 20 °F /  -6.7 °C 14.3 °F /  -9.8 °C 29.86in /  1011.1hPa Calm     78% 0.00in /  0mm 0 W/m2
06:54 20 °F /  -6.7 °C 14 °F /  -10 °C 29.86in /  1011.1hPa Calm     77.2% 0.00in /  0mm 0 W/m2
06:59 20.1 °F /  -6.6 °C 14 °F /  -10 °C 29.85in /  1010.7hPa Calm     76.9% 0.00in /  0mm 0 W/m2
07:04 20.2 °F /  -6.6 °C 13.9 °F /  -10.1 °C 29.84in /  1010.4hPa Calm     76% 0.00in /  0mm 0 W/m2
07:09 20.3 °F /  -6.5 °C 13.7 °F /  -10.2 °C 29.84in /  1010.4hPa Calm     75.2% 0.00in /  0mm 0 W/m2
07:14 20.4 °F /  -6.4 °C 13.8 °F /  -10.1 °C 29.84in /  1010.4hPa Calm     75% 0.00in /  0mm 0 W/m2
07:19 20.5 °F /  -6.4 °C 14 °F /  -10 °C 29.84in /  1010.4hPa Calm     75.5% 0.00in /  0mm 7 W/m2
07:24 20.6 °F /  -6.3 °C 14.2 °F /  -9.9 °C 29.84in /  1010.4hPa Calm     76% 0.00in /  0mm 11 W/m2
07:29 20.6 °F /  -6.3 °C 14.3 °F /  -9.8 °C 29.84in /  1010.4hPa Calm     76% 0.00in /  0mm 19 W/m2
07:34 20.6 °F /  -6.3 °C 14.3 °F /  -9.8 °C 29.84in /  1010.4hPa Calm     76% 0.00in /  0mm 21 W/m2
07:39 20.7 °F /  -6.3 °C 14.3 °F /  -9.8 °C 29.84in /  1010.4hPa Calm     76% 0.00in /  0mm 35 W/m2
07:44 20.7 °F /  -6.3 °C 14.5 °F /  -9.7 °C 29.84in /  1010.4hPa Calm     76.5% 0.00in /  0mm 35 W/m2
07:49 20.8 °F /  -6.2 °C 14.8 °F /  -9.6 °C 29.84in /  1010.4hPa Calm     77% 0.00in /  0mm 33 W/m2
07:54 20.9 °F /  -6.2 °C 14.9 °F /  -9.5 °C 29.84in /  1010.4hPa Calm     77% 0.00in /  0mm 53 W/m2
07:59 21.1 °F /  -6.1 °C 15 °F /  -9.4 °C 29.84in /  1010.4hPa Calm     77% 0.00in /  0mm 86 W/m2
08:04 21.6 °F /  -5.8 °C 15.8 °F /  -9 °C 29.84in /  1010.4hPa Calm     78% 0.00in /  0mm 58 W/m2
08:09 21.8 °F /  -5.7 °C 15.7 °F /  -9.1 °C 29.84in /  1010.4hPa Calm   3mph /  4.8km/h 77% 0.00in /  0mm 54 W/m2
08:14 22.1 °F /  -5.5 °C 15.4 °F /  -9.2 °C 29.84in /  1010.4hPa Calm   3mph /  4.8km/h 75% 0.00in /  0mm 37 W/m2
08:19 22.4 °F /  -5.3 °C 15 °F /  -9.4 °C 29.84in /  1010.4hPa Calm   3mph /  4.8km/h 73.1% 0.00in /  0mm 32 W/m2
08:24 22.4 °F /  -5.3 °C 14.5 °F /  -9.7 °C 29.83in /  1010hPa Calm   3mph /  4.8km/h 71.3% 0.00in /  0mm 40 W/m2
08:29 22.5 °F /  -5.3 °C 14.5 °F /  -9.7 °C 29.82in /  1009.7hPa Calm   3mph /  4.8km/h 71% 0.00in /  0mm 81 W/m2
08:34 22.6 °F /  -5.2 °C 14.6 °F /  -9.7 °C 29.82in /  1009.7hPa Calm   3mph /  4.8km/h 71% 0.00in /  0mm 79 W/m2
08:39 22.7 °F /  -5.2 °C 14.8 °F /  -9.6 °C 29.82in /  1009.7hPa Calm     71% 0.00in /  0mm 100 W/m2
08:44 23 °F /  -5 °C 15.1 °F /  -9.4 °C 29.81in /  1009.4hPa Calm     71.3% 0.00in /  0mm 111 W/m2
08:49 23.2 °F /  -4.9 °C 15 °F /  -9.4 °C 29.80in /  1009hPa Calm     70.4% 0.00in /  0mm 178 W/m2
08:54 23.5 °F /  -4.7 °C 15.1 °F /  -9.4 °C 29.80in /  1009hPa NW 0.1mph /  0.2km/h 2mph /  3.2km/h 69.9% 0.00in /  0mm 253 W/m2
08:59 24 °F /  -4.4 °C 15.3 °F /  -9.3 °C 29.80in /  1009hPa WNW 0.3mph /  0.5km/h 3mph /  4.8km/h 68.8% 0.00in /  0mm 204 W/m2
09:04 24.5 °F /  -4.2 °C 15.3 °F /  -9.3 °C 29.81in /  1009.4hPa WSW 0.1mph /  0.2km/h 3mph /  4.8km/h 67.5% 0.00in /  0mm 121 W/m2
09:09 24.9 °F /  -3.9 °C 15.5 °F /  -9.2 °C 29.80in /  1009hPa WSW 0.2mph /  0.3km/h 2mph /  3.2km/h 67.1% 0.00in /  0mm 146 W/m2
09:14 25.1 °F /  -3.8 °C 16.1 °F /  -8.8 °C 29.80in /  1009hPa SW 0.4mph /  0.6km/h 3mph /  4.8km/h 68% 0.00in /  0mm 146 W/m2
09:19 25.4 °F /  -3.7 °C 15.8 °F /  -9 °C 29.80in /  1009hPa SW 0.2mph /  0.3km/h 3mph /  4.8km/h 66.5% 0.00in /  0mm 134 W/m2
09:24 25.7 °F /  -3.5 °C 16.2 °F /  -8.8 °C 29.80in /  1009hPa SSW 0.4mph /  0.6km/h 3mph /  4.8km/h 67% 0.00in /  0mm 128 W/m2
09:29 25.9 °F /  -3.4 °C 16.2 °F /  -8.8 °C 29.80in /  1009hPa SSW 0.1mph /  0.2km/h 3mph /  4.8km/h 66.1% 0.00in /  0mm 114 W/m2
09:34 26.1 °F /  -3.3 °C 16.6 °F /  -8.6 °C 29.79in /  1008.7hPa SSW 0.2mph /  0.3km/h 3mph /  4.8km/h 66.8% 0.00in /  0mm 111 W/m2
09:39 26.2 °F /  -3.2 °C 16.8 °F /  -8.4 °C 29.79in /  1008.7hPa Calm   3mph /  4.8km/h 67% 0.00in /  0mm 107 W/m2
09:44 26.5 °F /  -3.1 °C 17 °F /  -8.3 °C 29.79in /  1008.7hPa South 0.6mph /  1km/h 4mph /  6.4km/h 67% 0.00in /  0mm 107 W/m2
09:49 26.8 °F /  -2.9 °C 17.3 °F /  -8.2 °C 29.78in /  1008.4hPa South 0.6mph /  1km/h 4mph /  6.4km/h 67% 0.00in /  0mm 121 W/m2
09:54 27.1 °F /  -2.7 °C 17.8 °F /  -7.9 °C 29.78in /  1008.4hPa SSW 0.6mph /  1km/h 5mph /  8km/h 67.5% 0.00in /  0mm 113 W/m2
09:59 27.4 °F /  -2.6 °C 18 °F /  -7.8 °C 29.78in /  1008.4hPa SSW 0.1mph /  0.2km/h 5mph /  8km/h 67.2% 0.00in /  0mm 109 W/m2
10:04 27.7 °F /  -2.4 °C 18.2 °F /  -7.7 °C 29.78in /  1008.4hPa SSW 0.3mph /  0.5km/h 5mph /  8km/h 67% 0.00in /  0mm 113 W/m2
10:09 27.9 °F /  -2.3 °C 18.3 °F /  -7.6 °C 29.78in /  1008.4hPa SSW 0.5mph /  0.8km/h 3mph /  4.8km/h 66.7% 0.00in /  0mm 123 W/m2
10:14 28.2 °F /  -2.1 °C 19 °F /  -7.2 °C 29.77in /  1008hPa SSW 0.3mph /  0.5km/h 3mph /  4.8km/h 67.9% 0.00in /  0mm 130 W/m2
10:19 28.5 °F /  -1.9 °C 19 °F /  -7.2 °C 29.77in /  1008hPa SSW 0.1mph /  0.2km/h 3mph /  4.8km/h 67% 0.00in /  0mm 125 W/m2
10:24 28.9 °F /  -1.7 °C 19.3 °F /  -7.1 °C 29.77in /  1008hPa SSW 0.6mph /  1km/h 3mph /  4.8km/h 67% 0.00in /  0mm 127 W/m2
10:29 29.2 °F /  -1.6 °C 19.7 °F /  -6.8 °C 29.77in /  1008hPa SW 0.9mph /  1.4km/h 9mph /  14.5km/h 67% 0.00in /  0mm 127 W/m2
10:34 29.6 °F /  -1.3 °C 20 °F /  -6.7 °C 29.77in /  1008hPa SW 0.6mph /  1km/h 9mph /  14.5km/h 67% 0.00in /  0mm 107 W/m2
10:39 29.8 °F /  -1.2 °C 20.2 °F /  -6.6 °C 29.77in /  1008hPa SW 0.7mph /  1.1km/h 4mph /  6.4km/h 67% 0.00in /  0mm 77 W/m2
10:44 30.1 °F /  -1.1 °C 20.5 °F /  -6.4 °C 29.77in /  1008hPa Calm   4mph /  6.4km/h 67% 0.00in /  0mm 56 W/m2
10:49 30.2 °F /  -1 °C 20.6 °F /  -6.3 °C 29.76in /  1007.7hPa SW 0.1mph /  0.2km/h 4mph /  6.4km/h 67% 0.00in /  0mm 54 W/m2
10:54 30.4 °F /  -0.9 °C 20.8 °F /  -6.2 °C 29.76in /  1007.7hPa SW 0.6mph /  1km/h 4mph /  6.4km/h 67.3% 0.00in /  0mm 46 W/m2
10:59 30.5 °F /  -0.8 °C 21.2 °F /  -6 °C 29.76in /  1007.7hPa SW 0.7mph /  1.1km/h 4mph /  6.4km/h 68% 0.00in /  0mm 40 W/m2
11:04 30.6 °F /  -0.8 °C 21.1 °F /  -6.1 °C 29.76in /  1007.7hPa SW 1.1mph /  1.8km/h 4mph /  6.4km/h 67.4% 0.00in /  0mm 42 W/m2
11:09 30.7 °F /  -0.7 °C 21.1 °F /  -6.1 °C 29.75in /  1007.3hPa SW 0.3mph /  0.5km/h 4mph /  6.4km/h 67% 0.00in /  0mm 47 W/m2
11:14 30.8 °F /  -0.7 °C 21.2 °F /  -6 °C 29.75in /  1007.3hPa SW 0.2mph /  0.3km/h 4mph /  6.4km/h 67% 0.00in /  0mm 60 W/m2
11:19 30.9 °F /  -0.6 °C 21.6 °F /  -5.8 °C 29.74in /  1007hPa SW 0.9mph /  1.4km/h 5mph /  8km/h 67.9% 0.00in /  0mm 95 W/m2
11:24 31.1 °F /  -0.5 °C 21.4 °F /  -5.9 °C 29.74in /  1007hPa SW 1.3mph /  2.1km/h 6mph /  9.7km/h 67% 0.00in /  0mm 127 W/m2
11:29 31.3 °F /  -0.4 °C 21.6 °F /  -5.8 °C 29.73in /  1006.7hPa SW 1.2mph /  1.9km/h 7mph /  11.3km/h 67% 0.00in /  0mm 132 W/m2
11:34 31.6 °F /  -0.2 °C 21.9 °F /  -5.6 °C 29.72in /  1006.3hPa SSW 1.2mph /  1.9km/h 7mph /  11.3km/h 66.9% 0.00in /  0mm 132 W/m2
11:39 31.8 °F /  -0.1 °C 21.8 °F /  -5.7 °C 29.71in /  1006hPa SSW 2.4mph /  3.9km/h 9mph /  14.5km/h 66% 0.00in /  0mm 141 W/m2
11:44 32.1 °F /  0.1 °C 21.7 °F /  -5.7 °C 29.71in /  1006hPa SW 3.9mph /  6.3km/h 9mph /  14.5km/h 65.1% 0.00in /  0mm 158 W/m2
11:47 32.2 °F /  0.1 °C 21.5 °F /  -5.8 °C 29.70in /  1005.6hPa SW 3.5mph /  5.6km/h 9mph /  14.5km/h 64.2% 0.00in /  0mm 176 W/m2
12:04 33.3 °F /  0.7 °C 22.1 °F /  -5.5 °C 29.69in /  1005.3hPa SW 1mph /  1.6km/h 1mph /  1.6km/h 63% 0.00in /  0mm 192 W/m2
12:09 33.4 °F /  0.8 °C 22.2 °F /  -5.4 °C 29.69in /  1005.3hPa SW 1.6mph /  2.6km/h 6mph /  9.7km/h 63% 0.00in /  0mm 192 W/m2
12:14 33.6 °F /  0.9 °C 22.3 °F /  -5.4 °C 29.69in /  1005.3hPa SW 0.4mph /  0.6km/h 6mph /  9.7km/h 62.8% 0.00in /  0mm 90 W/m2
12:19 33.7 °F /  0.9 °C 22.3 °F /  -5.4 °C 29.69in /  1005.3hPa SW 1.2mph /  1.9km/h 6mph /  9.7km/h 62.6% 0.00in /  0mm 62 W/m2
12:24 33.7 °F /  0.9 °C 22.1 °F /  -5.5 °C 29.69in /  1005.3hPa SW 3.2mph /  5.1km/h 13mph /  20.9km/h 62% 0.00in /  0mm 53 W/m2
12:29 33.5 °F /  0.8 °C 21.6 °F /  -5.8 °C 29.68in /  1005hPa SW 3.5mph /  5.6km/h 13mph /  20.9km/h 61.4% 0.00in /  0mm 56 W/m2
12:34 33.4 °F /  0.8 °C 21.6 °F /  -5.8 °C 29.68in /  1005hPa SW 3.2mph /  5.1km/h 13mph /  20.9km/h 61.7% 0.00in /  0mm 54 W/m2
12:39 33.3 °F /  0.7 °C 21.4 °F /  -5.9 °C 29.68in /  1005hPa SW 2.5mph /  4km/h 7mph /  11.3km/h 61.3% 0.00in /  0mm 47 W/m2
12:44 33.2 °F /  0.7 °C 21.6 °F /  -5.8 °C 29.67in /  1004.6hPa SW 1.4mph /  2.3km/h 7mph /  11.3km/h 62% 0.00in /  0mm 40 W/m2
12:49 33.2 °F /  0.7 °C 21.6 °F /  -5.8 °C 29.67in /  1004.6hPa SW 2.8mph /  4.5km/h 11mph /  17.7km/h 62% 0.00in /  0mm 44 W/m2
12:54 33.2 °F /  0.7 °C 21.3 °F /  -5.9 °C 29.67in /  1004.6hPa SW 1.5mph /  2.4km/h 11mph /  17.7km/h 61.2% 0.00in /  0mm 40 W/m2
12:59 33.3 °F /  0.7 °C 21.7 °F /  -5.7 °C 29.66in /  1004.3hPa SW 0.7mph /  1.1km/h 11mph /  17.7km/h 62% 0.00in /  0mm 49 W/m2
13:04 33.3 °F /  0.7 °C 21.7 °F /  -5.7 °C 29.66in /  1004.3hPa SW 0.6mph /  1km/h 11mph /  17.7km/h 62% 0.00in /  0mm 49 W/m2
13:09 33.4 °F /  0.8 °C 21.6 °F /  -5.8 °C 29.66in /  1004.3hPa SW 3mph /  4.8km/h 9mph /  14.5km/h 61.3% 0.00in /  0mm 60 W/m2
13:14 33.5 °F /  0.8 °C 21.5 °F /  -5.8 °C 29.66in /  1004.3hPa SSW 1.1mph /  1.8km/h 9mph /  14.5km/h 61% 0.00in /  0mm 91 W/m2
13:19 33.6 °F /  0.9 °C 21.7 °F /  -5.7 °C 29.65in /  1003.9hPa SSW 0.1mph /  0.2km/h 9mph /  14.5km/h 61.2% 0.00in /  0mm 97 W/m2
13:24 33.8 °F /  1 °C 22.1 °F /  -5.5 °C 29.65in /  1003.9hPa SSW 0.7mph /  1.1km/h 9mph /  14.5km/h 61.7% 0.00in /  0mm 102 W/m2
13:29 34 °F /  1.1 °C 22 °F /  -5.6 °C 29.64in /  1003.6hPa SSW 0.2mph /  0.3km/h 9mph /  14.5km/h 61% 0.00in /  0mm 142 W/m2
13:34 34.3 °F /  1.3 °C 22 °F /  -5.6 °C 29.64in /  1003.6hPa SW 1.3mph /  2.1km/h 9mph /  14.5km/h 60.5% 0.00in /  0mm 160 W/m2
13:39 34.6 °F /  1.4 °C 22.1 °F /  -5.5 °C 29.64in /  1003.6hPa SW 1mph /  1.6km/h 6mph /  9.7km/h 59.8% 0.00in /  0mm 160 W/m2
13:44 34.9 °F /  1.6 °C 22.4 °F /  -5.3 °C 29.63in /  1003.3hPa SW 1.1mph /  1.8km/h 9mph /  14.5km/h 59.9% 0.00in /  0mm 156 W/m2
13:49 35.1 °F /  1.7 °C 22.3 °F /  -5.4 °C 29.63in /  1003.3hPa SW 1.6mph /  2.6km/h 9mph /  14.5km/h 59% 0.00in /  0mm 134 W/m2
13:54 35.3 °F /  1.8 °C 22.4 °F /  -5.3 °C 29.63in /  1003.3hPa SW 0.3mph /  0.5km/h 9mph /  14.5km/h 59% 0.00in /  0mm 132 W/m2
13:59 35.5 °F /  1.9 °C 22.6 °F /  -5.2 °C 29.63in /  1003.3hPa SW 1mph /  1.6km/h 9mph /  14.5km/h 59% 0.00in /  0mm 137 W/m2
14:04 35.6 °F /  2 °C 22.4 °F /  -5.3 °C 29.63in /  1003.3hPa SW 2.3mph /  3.7km/h 9mph /  14.5km/h 58.3% 0.00in /  0mm 142 W/m2
14:09 35.7 °F /  2.1 °C 22.4 °F /  -5.3 °C 29.62in /  1002.9hPa SW 1.1mph /  1.8km/h 7mph /  11.3km/h 58% 0.00in /  0mm 137 W/m2
14:14 35.9 °F /  2.2 °C 22.6 °F /  -5.2 °C 29.63in /  1003.3hPa SW 0.7mph /  1.1km/h 7mph /  11.3km/h 58% 0.00in /  0mm 139 W/m2
14:19 36.1 °F /  2.3 °C 22.9 °F /  -5.1 °C 29.62in /  1002.9hPa SW 1.2mph /  1.9km/h 7mph /  11.3km/h 58.3% 0.00in /  0mm 135 W/m2
14:24 36.3 °F /  2.4 °C 22.5 °F /  -5.3 °C 29.62in /  1002.9hPa Calm   7mph /  11.3km/h 57% 0.00in /  0mm 134 W/m2
14:29 36.4 °F /  2.4 °C 22.9 °F /  -5.1 °C 29.63in /  1003.3hPa Calm   7mph /  11.3km/h 57.7% 0.00in /  0mm 132 W/m2
14:34 36.5 °F /  2.5 °C 23.3 °F /  -4.8 °C 29.63in /  1003.3hPa SW 0.1mph /  0.2km/h 7mph /  11.3km/h 58.2% 0.00in /  0mm 98 W/m2
14:39 36.6 °F /  2.6 °C 23.1 °F /  -4.9 °C 29.63in /  1003.3hPa SW 0.4mph /  0.6km/h 3mph /  4.8km/h 57.6% 0.00in /  0mm 97 W/m2
14:44 36.7 °F /  2.6 °C 22.8 °F /  -5.1 °C 29.62in /  1002.9hPa SW 0.5mph /  0.8km/h 3mph /  4.8km/h 56.8% 0.00in /  0mm 77 W/m2
14:49 36.7 °F /  2.6 °C 22.7 °F /  -5.2 °C 29.62in /  1002.9hPa SW 0.3mph /  0.5km/h 4mph /  6.4km/h 56.4% 0.00in /  0mm 74 W/m2
14:54 36.7 °F /  2.6 °C 23.1 °F /  -4.9 °C 29.62in /  1002.9hPa SW 0.7mph /  1.1km/h 4mph /  6.4km/h 57.4% 0.00in /  0mm 84 W/m2
14:59 36.7 °F /  2.6 °C 22.8 °F /  -5.1 °C 29.62in /  1002.9hPa SW 1.5mph /  2.4km/h 8mph /  12.9km/h 56.9% 0.00in /  0mm 91 W/m2
15:04 36.7 °F /  2.6 °C 22.9 °F /  -5.1 °C 29.62in /  1002.9hPa Calm   8mph /  12.9km/h 56.9% 0.00in /  0mm 102 W/m2
15:09 36.7 °F /  2.6 °C 23.2 °F /  -4.9 °C 29.62in /  1002.9hPa SW 1.2mph /  1.9km/h 4mph /  6.4km/h 57.7% 0.00in /  0mm 74 W/m2
15:14 36.8 °F /  2.7 °C 23 °F /  -5 °C 29.62in /  1002.9hPa SW 0.1mph /  0.2km/h 4mph /  6.4km/h 57% 0.00in /  0mm 83 W/m2
15:19 36.8 °F /  2.7 °C 23.1 °F /  -4.9 °C 29.62in /  1002.9hPa SW 0.5mph /  0.8km/h 4mph /  6.4km/h 57.2% 0.00in /  0mm 88 W/m2
15:24 37 °F /  2.8 °C 23.2 °F /  -4.9 °C 29.62in /  1002.9hPa SW 0.3mph /  0.5km/h 4mph /  6.4km/h 57.1% 0.00in /  0mm 84 W/m2
15:29 37.1 °F /  2.8 °C 23.4 °F /  -4.8 °C 29.62in /  1002.9hPa Calm   4mph /  6.4km/h 57.3% 0.00in /  0mm 63 W/m2
15:34 37.2 °F /  2.9 °C 23.8 °F /  -4.6 °C 29.62in /  1002.9hPa SW 0.2mph /  0.3km/h 4mph /  6.4km/h 57.9% 0.00in /  0mm 42 W/m2
15:39 37.2 °F /  2.9 °C 23.2 °F /  -4.9 °C 29.61in /  1002.6hPa SW 0.2mph /  0.3km/h 3mph /  4.8km/h 56.5% 0.00in /  0mm 54 W/m2
15:44 37.1 °F /  2.8 °C 22.9 °F /  -5.1 °C 29.61in /  1002.6hPa Calm   3mph /  4.8km/h 56.1% 0.00in /  0mm 58 W/m2
15:49 37.1 °F /  2.8 °C 23.3 °F /  -4.8 °C 29.61in /  1002.6hPa Calm   3mph /  4.8km/h 57.1% 0.00in /  0mm 58 W/m2
15:54 37 °F /  2.8 °C 23.6 °F /  -4.7 °C 29.61in /  1002.6hPa SW 0.1mph /  0.2km/h 3mph /  4.8km/h 58% 0.00in /  0mm 51 W/m2
15:58 37 °F /  2.8 °C 23.2 °F /  -4.9 °C 29.61in /  1002.6hPa SW 0.3mph /  0.5km/h 3mph /  4.8km/h 57% 0.00in /  0mm 42 W/m2
16:04 37 °F /  2.8 °C 23.6 °F /  -4.7 °C 29.61in /  1002.6hPa Calm     58% 0.00in /  0mm 25 W/m2
16:09 37 °F /  2.8 °C 23.6 °F /  -4.7 °C 29.61in /  1002.6hPa SW 0.2mph /  0.3km/h 2mph /  3.2km/h 58% 0.00in /  0mm 23 W/m2
16:14 36.9 °F /  2.7 °C 23.5 °F /  -4.7 °C 29.61in /  1002.6hPa SW 0.1mph /  0.2km/h 2mph /  3.2km/h 58% 0.00in /  0mm 19 W/m2
16:19 36.9 °F /  2.7 °C 23.5 °F /  -4.7 °C 29.61in /  1002.6hPa SW 0.3mph /  0.5km/h 2mph /  3.2km/h 58% 0.00in /  0mm 16 W/m2
16:24 36.8 °F /  2.7 °C 23.4 °F /  -4.8 °C 29.61in /  1002.6hPa SW 0.1mph /  0.2km/h 2mph /  3.2km/h 58% 0.00in /  0mm 14 W/m2
16:29 36.7 °F /  2.6 °C 23.4 °F /  -4.8 °C 29.61in /  1002.6hPa SW 0.9mph /  1.4km/h 6mph /  9.7km/h 58.3% 0.00in /  0mm 12 W/m2
16:34 36.6 °F /  2.6 °C 23.4 °F /  -4.8 °C 29.62in /  1002.9hPa Calm   6mph /  9.7km/h 58.3% 0.00in /  0mm 11 W/m2
16:39 36.5 °F /  2.5 °C 23.6 °F /  -4.7 °C 29.62in /  1002.9hPa Calm   1mph /  1.6km/h 59% 0.00in /  0mm 9 W/m2
16:44 36.4 °F /  2.4 °C 23.7 °F /  -4.6 °C 29.62in /  1002.9hPa Calm   1mph /  1.6km/h 59.5% 0.00in /  0mm 7 W/m2
16:49 36.3 °F /  2.4 °C 23.3 °F /  -4.8 °C 29.62in /  1002.9hPa Calm   1mph /  1.6km/h 59% 0.00in /  0mm 5 W/m2
16:54 36.1 °F /  2.3 °C 23.2 °F /  -4.9 °C 29.62in /  1002.9hPa Calm   1mph /  1.6km/h 59% 0.00in /  0mm 0 W/m2
16:59 35.9 °F /  2.2 °C 23.1 °F /  -4.9 °C 29.61in /  1002.6hPa Calm   1mph /  1.6km/h 59.2% 0.00in /  0mm 0 W/m2
17:04 35.7 °F /  2.1 °C 23.2 °F /  -4.9 °C 29.62in /  1002.9hPa Calm   1mph /  1.6km/h 60% 0.00in /  0mm 0 W/m2
17:09 35.5 °F /  1.9 °C 23 °F /  -5 °C 29.62in /  1002.9hPa Calm     60% 0.00in /  0mm 0 W/m2
17:14 35.3 °F /  1.8 °C 22.9 °F /  -5.1 °C 29.61in /  1002.6hPa Calm     60.3% 0.00in /  0mm 0 W/m2
17:19 35.1 °F /  1.7 °C 23 °F /  -5 °C 29.62in /  1002.9hPa Calm     61% 0.00in /  0mm 0 W/m2
17:24 35 °F /  1.7 °C 22.9 °F /  -5.1 °C 29.62in /  1002.9hPa Calm     61% 0.00in /  0mm 0 W/m2
17:29 34.8 °F /  1.6 °C 22.9 °F /  -5.1 °C 29.62in /  1002.9hPa Calm     61.4% 0.00in /  0mm 0 W/m2
17:34 34.7 °F /  1.5 °C 23.1 °F /  -4.9 °C 29.62in /  1002.9hPa Calm     62% 0.00in /  0mm 0 W/m2
17:39 34.7 °F /  1.5 °C 23 °F /  -5 °C 29.62in /  1002.9hPa Calm     62% 0.00in /  0mm 0 W/m2
17:44 34.7 °F /  1.5 °C 23 °F /  -5 °C 29.62in /  1002.9hPa Calm     62% 0.00in /  0mm 0 W/m2
17:49 34.7 °F /  1.5 °C 23 °F /  -5 °C 29.62in /  1002.9hPa Calm     62% 0.00in /  0mm 0 W/m2
17:54 34.7 °F /  1.5 °C 23 °F /  -5 °C 29.62in /  1002.9hPa Calm     62% 0.00in /  0mm 0 W/m2
17:59 34.4 °F /  1.3 °C 22.8 °F /  -5.1 °C 29.62in /  1002.9hPa Calm     62.2% 0.00in /  0mm 0 W/m2
18:04 34 °F /  1.1 °C 22.8 °F /  -5.1 °C 29.62in /  1002.9hPa Calm     63.1% 0.00in /  0mm 0 W/m2
18:09 33.7 °F /  0.9 °C 23 °F /  -5 °C 29.62in /  1002.9hPa Calm     64.5% 0.00in /  0mm 0 W/m2
18:14 33.4 °F /  0.8 °C 22.6 °F /  -5.2 °C 29.62in /  1002.9hPa Calm     64% 0.00in /  0mm 0 W/m2
18:19 33.1 °F /  0.6 °C 22.5 °F /  -5.3 °C 29.62in /  1002.9hPa Calm     64.6% 0.00in /  0mm 0 W/m2
18:24 32.9 °F /  0.5 °C 22.7 °F /  -5.2 °C 29.62in /  1002.9hPa Calm     65.8% 0.00in /  0mm 0 W/m2
18:29 32.7 °F /  0.4 °C 22.6 °F /  -5.2 °C 29.62in /  1002.9hPa Calm     66% 0.00in /  0mm 0 W/m2
18:34 32.4 °F /  0.2 °C 22.5 °F /  -5.3 °C 29.62in /  1002.9hPa Calm     66.4% 0.00in /  0mm 0 W/m2
18:39 32.2 °F /  0.1 °C 22.6 °F /  -5.2 °C 29.62in /  1002.9hPa Calm     67.2% 0.00in /  0mm 0 W/m2
18:44 31.9 °F /  -0.1 °C 22.6 °F /  -5.2 °C 29.62in /  1002.9hPa Calm     68% 0.00in /  0mm 0 W/m2
18:49 31.6 °F /  -0.2 °C 22.4 °F /  -5.3 °C 29.62in /  1002.9hPa Calm     68.1% 0.00in /  0mm 0 W/m2
18:54 31.4 °F /  -0.3 °C 22.6 °F /  -5.2 °C 29.62in /  1002.9hPa Calm     69.4% 0.00in /  0mm 0 W/m2
18:59 31.2 °F /  -0.4 °C 22.7 °F /  -5.2 °C 29.62in /  1002.9hPa Calm     70.3% 0.00in /  0mm 0 W/m2
19:04 31.1 °F /  -0.5 °C 22.8 °F /  -5.1 °C 29.62in /  1002.9hPa Calm     71% 0.00in /  0mm 0 W/m2
19:09 30.9 °F /  -0.6 °C 22.8 °F /  -5.1 °C 29.62in /  1002.9hPa Calm   1mph /  1.6km/h 71.7% 0.00in /  0mm 0 W/m2
19:14 30.7 °F /  -0.7 °C 22.7 °F /  -5.2 °C 29.62in /  1002.9hPa WSW 0.9mph /  1.4km/h 5mph /  8km/h 72% 0.00in /  0mm 0 W/m2
19:19 30.5 °F /  -0.8 °C 22.9 °F /  -5.1 °C 29.62in /  1002.9hPa WSW 0.5mph /  0.8km/h 5mph /  8km/h 73% 0.00in /  0mm 0 W/m2
19:24 30.5 °F /  -0.8 °C 22.9 °F /  -5.1 °C 29.62in /  1002.9hPa WSW 0.6mph /  1km/h 7mph /  11.3km/h 73% 0.00in /  0mm 0 W/m2
19:29 30.6 °F /  -0.8 °C 22.8 °F /  -5.1 °C 29.62in /  1002.9hPa Calm   7mph /  11.3km/h 72.4% 0.00in /  0mm 0 W/m2
19:34 30.9 °F /  -0.6 °C 22.9 °F /  -5.1 °C 29.62in /  1002.9hPa Calm   7mph /  11.3km/h 72% 0.00in /  0mm 0 W/m2
19:39 31.1 °F /  -0.5 °C 23.2 °F /  -4.9 °C 29.62in /  1002.9hPa Calm     71.9% 0.00in /  0mm 0 W/m2
19:44 31.3 °F /  -0.4 °C 23.1 °F /  -4.9 °C 29.62in /  1002.9hPa Calm     71.2% 0.00in /  0mm 0 W/m2
19:49 31.4 °F /  -0.3 °C 23.1 °F /  -4.9 °C 29.62in /  1002.9hPa Calm     71% 0.00in /  0mm 0 W/m2
19:54 31.6 °F /  -0.2 °C 23.3 °F /  -4.8 °C 29.62in /  1002.9hPa Calm     71% 0.00in /  0mm 0 W/m2
19:59 31.8 °F /  -0.1 °C 23.3 °F /  -4.8 °C 29.62in /  1002.9hPa Calm     70.6% 0.00in /  0mm 0 W/m2
20:04 31.9 °F /  -0.1 °C 23.2 °F /  -4.9 °C 29.62in /  1002.9hPa Calm     70% 0.00in /  0mm 0 W/m2
20:09 32 °F /  0 °C 23.3 °F /  -4.8 °C 29.62in /  1002.9hPa Calm     70% 0.00in /  0mm 0 W/m2
20:14 32.1 °F /  0.1 °C 23.3 °F /  -4.8 °C 29.61in /  1002.6hPa Calm     69.6% 0.00in /  0mm 0 W/m2
20:19 32.2 °F /  0.1 °C 23.2 °F /  -4.9 °C 29.61in /  1002.6hPa Calm     69% 0.00in /  0mm 0 W/m2
20:24 32.3 °F /  0.2 °C 23.3 °F /  -4.8 °C 29.61in /  1002.6hPa Calm     69% 0.00in /  0mm 0 W/m2
20:29 32.5 °F /  0.3 °C 23.5 °F /  -4.7 °C 29.60in /  1002.3hPa Calm     69% 0.00in /  0mm 0 W/m2
20:34 32.6 °F /  0.3 °C 23.3 °F /  -4.8 °C 29.60in /  1002.3hPa Calm     68.2% 0.00in /  0mm 0 W/m2
20:39 32.4 °F /  0.2 °C 23.3 °F /  -4.8 °C 29.60in /  1002.3hPa Calm     68.6% 0.00in /  0mm 0 W/m2
20:44 32.1 °F /  0.1 °C 23.1 °F /  -4.9 °C 29.60in /  1002.3hPa Calm     69.1% 0.00in /  0mm 0 W/m2
20:49 31.7 °F /  -0.2 °C 23 °F /  -5 °C 29.60in /  1002.3hPa Calm     70% 0.00in /  0mm 0 W/m2
20:54 31.4 °F /  -0.3 °C 22.8 °F /  -5.1 °C 29.60in /  1002.3hPa Calm     70% 0.00in /  0mm 0 W/m2
20:59 31.2 °F /  -0.4 °C 22.9 °F /  -5.1 °C 29.60in /  1002.3hPa Calm     71% 0.00in /  0mm 0 W/m2
21:04 31 °F /  -0.6 °C 22.9 °F /  -5.1 °C 29.60in /  1002.3hPa Calm     71.7% 0.00in /  0mm 0 W/m2
21:09 30.9 °F /  -0.6 °C 23 °F /  -5 °C 29.60in /  1002.3hPa Calm     72.1% 0.00in /  0mm 0 W/m2
21:14 30.8 °F /  -0.7 °C 23.2 °F /  -4.9 °C 29.60in /  1002.3hPa Calm     73% 0.00in /  0mm 0 W/m2
21:19 30.8 °F /  -0.7 °C 23.2 °F /  -4.9 °C 29.60in /  1002.3hPa Calm     73% 0.00in /  0mm 0 W/m2
21:24 30.7 °F /  -0.7 °C 23.1 °F /  -4.9 °C 29.60in /  1002.3hPa Calm     73% 0.00in /  0mm 0 W/m2
21:29 30.7 °F /  -0.7 °C 23.4 °F /  -4.8 °C 29.60in /  1002.3hPa Calm     73.9% 0.00in /  0mm 0 W/m2
21:34 30.8 °F /  -0.7 °C 23.5 °F /  -4.7 °C 29.59in /  1001.9hPa Calm     74% 0.00in /  0mm 0 W/m2
21:39 31 °F /  -0.6 °C 23.4 °F /  -4.8 °C 29.59in /  1001.9hPa Calm     73.1% 0.00in /  0mm 0 W/m2
21:44 31.2 °F /  -0.4 °C 23.6 °F /  -4.7 °C 29.59in /  1001.9hPa Calm     73% 0.00in /  0mm 0 W/m2
21:49 31.4 °F /  -0.3 °C 23.8 °F /  -4.6 °C 29.59in /  1001.9hPa Calm     73% 0.00in /  0mm 0 W/m2
21:54 31.6 °F /  -0.2 °C 23.6 °F /  -4.7 °C 29.59in /  1001.9hPa Calm     72.1% 0.00in /  0mm 0 W/m2
21:59 31.7 °F /  -0.2 °C 23.7 °F /  -4.6 °C 29.58in /  1001.6hPa Calm     72% 0.00in /  0mm 0 W/m2
22:04 31.9 °F /  -0.1 °C 23.7 °F /  -4.6 °C 29.58in /  1001.6hPa Calm     71.5% 0.00in /  0mm 0 W/m2
22:09 32.1 °F /  0.1 °C 24 °F /  -4.4 °C 29.58in /  1001.6hPa Calm     71.8% 0.00in /  0mm 0 W/m2
22:14 32.2 °F /  0.1 °C 23.9 °F /  -4.5 °C 29.58in /  1001.6hPa Calm     71.2% 0.00in /  0mm 0 W/m2
22:19 32.2 °F /  0.1 °C 24.2 °F /  -4.3 °C 29.58in /  1001.6hPa Calm     72% 0.00in /  0mm 0 W/m2
22:24 32.2 °F /  0.1 °C 24.2 °F /  -4.3 °C 29.58in /  1001.6hPa Calm     72% 0.00in /  0mm 0 W/m2
22:29 32.1 °F /  0.1 °C 24.1 °F /  -4.4 °C 29.58in /  1001.6hPa Calm     72% 0.00in /  0mm 0 W/m2
22:34 31.8 °F /  -0.1 °C 24.1 °F /  -4.4 °C 29.58in /  1001.6hPa Calm     72.8% 0.00in /  0mm 0 W/m2
22:39 31.6 °F /  -0.2 °C 24 °F /  -4.4 °C 29.58in /  1001.6hPa Calm     73% 0.00in /  0mm 0 W/m2
22:44 31.5 °F /  -0.3 °C 24.1 °F /  -4.4 °C 29.58in /  1001.6hPa Calm     73.9% 0.00in /  0mm 0 W/m2
22:49 31.4 °F /  -0.3 °C 24.2 °F /  -4.3 °C 29.58in /  1001.6hPa Calm     74.3% 0.00in /  0mm 0 W/m2
22:54 31.4 °F /  -0.3 °C 24.4 °F /  -4.2 °C 29.58in /  1001.6hPa Calm     75% 0.00in /  0mm 0 W/m2
22:59 31.5 °F /  -0.3 °C 24.5 °F /  -4.2 °C 29.58in /  1001.6hPa Calm     75% 0.00in /  0mm 0 W/m2
23:00 31.5 °F /  -0.3 °C 24.5 °F /  -4.2 °C 29.58in /  1001.6hPa Calm     75% 0.00in /  0mm 0 W/m2
23:09 31.7 °F /  -0.2 °C 24.4 °F /  -4.2 °C 29.58in /  1001.6hPa Calm     74% 0.00in /  0mm 0 W/m2
23:14 31.9 °F /  -0.1 °C 24.5 °F /  -4.2 °C 29.58in /  1001.6hPa Calm     74% 0.00in /  0mm 0 W/m2
23:19 31.9 °F /  -0.1 °C 24.6 °F /  -4.1 °C 29.58in /  1001.6hPa Calm   1mph /  1.6km/h 74% 0.00in /  0mm 0 W/m2
23:24 32.1 °F /  0.1 °C 24.5 °F /  -4.2 °C 29.58in /  1001.6hPa Calm   1mph /  1.6km/h 73.4% 0.00in /  0mm 0 W/m2
23:29 32.2 °F /  0.1 °C 24.6 °F /  -4.1 °C 29.58in /  1001.6hPa Calm   1mph /  1.6km/h 73% 0.00in /  0mm 0 W/m2
23:34 32.4 °F /  0.2 °C 24.7 °F /  -4.1 °C 29.57in /  1001.2hPa Calm   1mph /  1.6km/h 72.8% 0.00in /  0mm 0 W/m2
23:39 32.6 °F /  0.3 °C 24.6 °F /  -4.1 °C 29.57in /  1001.2hPa Calm     72% 0.00in /  0mm 0 W/m2
23:44 32.8 °F /  0.4 °C 24.8 °F /  -4 °C 29.57in /  1001.2hPa Calm     72.2% 0.00in /  0mm 0 W/m2
23:49 32.9 °F /  0.5 °C 24.9 °F /  -3.9 °C 29.57in /  1001.2hPa Calm   1mph /  1.6km/h 72% 0.00in /  0mm 0 W/m2
23:54 33 °F /  0.6 °C 24.9 °F /  -3.9 °C 29.57in /  1001.2hPa Calm   1mph /  1.6km/h 72% 0.00in /  0mm 0 W/m2
23:59 33 °F /  0.6 °C 25.2 °F /  -3.8 °C 29.57in /  1001.2hPa WSW 0.1mph /  0.2km/h 2mph /  3.2km/h 72.7% 0.00in /  0mm 0 W/m2
Hartford County Weather
Compliments of Weather Underground - 2 mb